Alexandria, LA

2:46 PM CST on January 16, 2017 (GMT -0600)
J N Gray | | Change Station

Elev 70 ft 31.27 °N, 92.47 °W | Updated 20 minutes ago

Mostly Cloudy
Mostly Cloudy
75.9 °F
Feels Like 77 °F
N
11.4
Wind Variable Wind from South

Today
High -- | Low -- °F
--% Chance of Precip.
Yesterday
High -- | Low -- °F
Precip. -- in
Pressure 30.01 in
Visibility 10.0 miles
Clouds Mostly Cloudy 9000 ft
Heat Index 77 °F
Dew Point 66 °F
Humidity 72%
Rainfall 0.01 in
Snow Depth Not available.
7:08 AM 5:30 PM
Waning Gibbous, 78% visible
METAR KAEX 161953Z 17015G19KT 10SM BKN090 23/19 A3000 RMK AO2 RAE00 SLP162 P0000 T02330189
Pressure 30.01 in
Visibility 10.0 miles
Clouds Mostly Cloudy 9000 ft
Heat Index 77 °F
Dew Point 66 °F
Humidity 72%
Rainfall 0.01 in
Snow Depth Not available.
7:08 AM 5:30 PM
Waning Gibbous, 78% visible
METAR KAEX 161953Z 17015G19KT 10SM BKN090 23/19 A3000 RMK AO2 RAE00 SLP162 P0000 T02330189

Get Your Daily Forecast Email!

Thanks for signing up!

Be on the lookout for a verification email in your inbox.

You'll start receiving the daily forecast at 8 AM.

×

10-Day Weather Forecast

Almanac

Astronomy

Jan. 16, 2017 Rise Set
Actual Time
Civil Twilight
Nautical Twilight
Astronomical Twilight
Moon
Length of Visible Light
Length of Day
Tomorrow will be .
, % of the Moon is Illuminated

Today's Extremes

State Highs State Lows

Community

WunderPhotos

Upload Photos

1,962,540 photos uploaded!

WunderBlog® & News

Nearby

Air Quality

  Air Quality AQ Index Pollutant
Not available.

Snow Depth

Station Depth Elevation

Earthquake Activity

City Distance Mag. Time & Date
Minimum magnitude displayed is 2.5.

Coastal Water Temperatures

Place Temperature

Stations

Nearby Weather Stations

Station Location Temp. Windchill Dew Point Humidity Wind Precip. Elev Updated Type
                   

Watches & Warnings

There are currently no watches in effect.